sensor_id;sensor_type;location;lat;lon;timestamp;P1;durP1;ratioP1;P2;durP2;ratioP2
61903;SDS011;47857;52.270;6.804;2023-05-07T00:01:32;16.92;;;14.00;;
61903;SDS011;47857;52.270;6.804;2023-05-07T00:03:58;14.77;;;12.70;;
61903;SDS011;47857;52.270;6.804;2023-05-07T00:06:23;14.70;;;12.80;;
61903;SDS011;47857;52.270;6.804;2023-05-07T00:08:51;14.23;;;12.15;;
61903;SDS011;47857;52.270;6.804;2023-05-07T00:11:16;14.20;;;12.57;;
61903;SDS011;47857;52.270;6.804;2023-05-07T00:13:42;15.23;;;13.45;;
61903;SDS011;47857;52.270;6.804;2023-05-07T00:16:07;15.25;;;12.27;;
61903;SDS011;47857;52.270;6.804;2023-05-07T00:18:33;13.55;;;12.10;;
61903;SDS011;47857;52.270;6.804;2023-05-07T00:20:58;16.30;;;12.63;;
61903;SDS011;47857;52.270;6.804;2023-05-07T00:23:24;13.40;;;11.25;;
61903;SDS011;47857;52.270;6.804;2023-05-07T00:25:49;14.48;;;13.05;;
61903;SDS011;47857;52.270;6.804;2023-05-07T00:28:15;13.50;;;12.10;;
61903;SDS011;47857;52.270;6.804;2023-05-07T00:30:41;14.60;;;12.60;;
61903;SDS011;47857;52.270;6.804;2023-05-07T00:33:06;13.57;;;12.18;;
61903;SDS011;47857;52.270;6.804;2023-05-07T00:35:32;16.77;;;12.25;;
61903;SDS011;47857;52.270;6.804;2023-05-07T00:37:57;13.52;;;12.23;;
61903;SDS011;47857;52.270;6.804;2023-05-07T00:40:23;15.20;;;13.65;;
61903;SDS011;47857;52.270;6.804;2023-05-07T00:42:48;13.98;;;12.50;;
61903;SDS011;47857;52.270;6.804;2023-05-07T00:45:15;13.63;;;12.23;;
61903;SDS011;47857;52.270;6.804;2023-05-07T00:47:41;13.95;;;12.65;;
61903;SDS011;47857;52.270;6.804;2023-05-07T00:50:07;14.77;;;13.25;;
61903;SDS011;47857;52.270;6.804;2023-05-07T00:52:35;14.52;;;13.02;;
61903;SDS011;47857;52.270;6.804;2023-05-07T00:55:02;14.57;;;12.75;;
61903;SDS011;47857;52.270;6.804;2023-05-07T00:57:32;14.93;;;12.75;;
61903;SDS011;47857;52.270;6.804;2023-05-07T00:59:58;16.23;;;14.23;;
61903;SDS011;47857;52.270;6.804;2023-05-07T01:02:24;15.57;;;13.50;;
61903;SDS011;47857;52.270;6.804;2023-05-07T01:04:50;15.65;;;13.90;;
61903;SDS011;47857;52.270;6.804;2023-05-07T01:07:15;16.15;;;14.50;;
61903;SDS011;47857;52.270;6.804;2023-05-07T01:09:41;15.75;;;14.00;;
61903;SDS011;47857;52.270;6.804;2023-05-07T01:12:07;17.58;;;14.90;;
61903;SDS011;47857;52.270;6.804;2023-05-07T01:14:33;16.08;;;14.43;;
61903;SDS011;47857;52.270;6.804;2023-05-07T01:16:59;17.00;;;15.02;;
61903;SDS011;47857;52.270;6.804;2023-05-07T01:19:25;16.92;;;15.05;;
61903;SDS011;47857;52.270;6.804;2023-05-07T01:21:52;15.77;;;14.07;;
61903;SDS011;47857;52.270;6.804;2023-05-07T01:24:23;16.55;;;14.75;;
61903;SDS011;47857;52.270;6.804;2023-05-07T01:26:49;19.02;;;15.07;;
61903;SDS011;47857;52.270;6.804;2023-05-07T01:29:16;18.48;;;15.32;;
61903;SDS011;47857;52.270;6.804;2023-05-07T01:31:43;17.10;;;15.32;;
61903;SDS011;47857;52.270;6.804;2023-05-07T01:34:09;18.65;;;15.32;;
61903;SDS011;47857;52.270;6.804;2023-05-07T01:36:35;17.05;;;14.90;;
61903;SDS011;47857;52.270;6.804;2023-05-07T01:39:02;17.80;;;15.90;;
61903;SDS011;47857;52.270;6.804;2023-05-07T01:41:28;19.60;;;15.35;;
61903;SDS011;47857;52.270;6.804;2023-05-07T01:43:53;18.27;;;15.32;;
61903;SDS011;47857;52.270;6.804;2023-05-07T01:46:19;19.67;;;15.63;;
61903;SDS011;47857;52.270;6.804;2023-05-07T01:48:45;17.23;;;15.15;;
61903;SDS011;47857;52.270;6.804;2023-05-07T01:51:11;19.25;;;15.45;;
61903;SDS011;47857;52.270;6.804;2023-05-07T01:53:38;19.83;;;14.75;;
61903;SDS011;47857;52.270;6.804;2023-05-07T01:56:05;19.95;;;14.80;;
61903;SDS011;47857;52.270;6.804;2023-05-07T01:58:32;23.70;;;15.95;;
61903;SDS011;47857;52.270;6.804;2023-05-07T02:00:57;21.60;;;15.90;;
61903;SDS011;47857;52.270;6.804;2023-05-07T02:03:23;20.42;;;16.27;;
61903;SDS011;47857;52.270;6.804;2023-05-07T02:05:56;22.23;;;16.02;;
61903;SDS011;47857;52.270;6.804;2023-05-07T02:08:29;22.75;;;16.20;;
61903;SDS011;47857;52.270;6.804;2023-05-07T02:10:55;21.17;;;16.38;;
61903;SDS011;47857;52.270;6.804;2023-05-07T02:13:21;21.35;;;16.58;;
61903;SDS011;47857;52.270;6.804;2023-05-07T02:15:50;26.25;;;17.63;;
61903;SDS011;47857;52.270;6.804;2023-05-07T02:18:16;23.48;;;18.08;;
61903;SDS011;47857;52.270;6.804;2023-05-07T02:20:42;23.83;;;17.52;;
61903;SDS011;47857;52.270;6.804;2023-05-07T02:23:07;21.42;;;17.40;;
61903;SDS011;47857;52.270;6.804;2023-05-07T02:25:33;21.83;;;17.48;;
61903;SDS011;47857;52.270;6.804;2023-05-07T02:27:59;26.17;;;18.00;;
61903;SDS011;47857;52.270;6.804;2023-05-07T02:30:37;24.13;;;17.45;;
61903;SDS011;47857;52.270;6.804;2023-05-07T02:33:04;24.92;;;18.17;;
61903;SDS011;47857;52.270;6.804;2023-05-07T02:35:30;24.38;;;18.15;;
61903;SDS011;47857;52.270;6.804;2023-05-07T02:37:56;25.33;;;19.08;;
61903;SDS011;47857;52.270;6.804;2023-05-07T02:40:23;23.50;;;17.75;;
61903;SDS011;47857;52.270;6.804;2023-05-07T02:42:49;26.00;;;19.85;;
61903;SDS011;47857;52.270;6.804;2023-05-07T02:45:15;25.05;;;19.17;;
61903;SDS011;47857;52.270;6.804;2023-05-07T02:47:41;28.33;;;20.35;;
61903;SDS011;47857;52.270;6.804;2023-05-07T02:50:07;26.95;;;21.08;;
61903;SDS011;47857;52.270;6.804;2023-05-07T02:52:32;29.35;;;20.30;;
61903;SDS011;47857;52.270;6.804;2023-05-07T02:54:58;27.58;;;20.48;;
61903;SDS011;47857;52.270;6.804;2023-05-07T02:57:23;27.20;;;20.73;;
61903;SDS011;47857;52.270;6.804;2023-05-07T02:59:49;26.58;;;21.23;;
61903;SDS011;47857;52.270;6.804;2023-05-07T03:02:17;24.80;;;20.73;;
61903;SDS011;47857;52.270;6.804;2023-05-07T03:04:43;27.17;;;20.40;;
61903;SDS011;47857;52.270;6.804;2023-05-07T03:07:08;33.10;;;21.77;;
61903;SDS011;47857;52.270;6.804;2023-05-07T03:09:34;26.40;;;20.88;;
61903;SDS011;47857;52.270;6.804;2023-05-07T03:12:00;28.23;;;22.05;;
61903;SDS011;47857;52.270;6.804;2023-05-07T03:14:26;26.45;;;21.35;;
61903;SDS011;47857;52.270;6.804;2023-05-07T03:16:52;29.30;;;21.73;;
61903;SDS011;47857;52.270;6.804;2023-05-07T03:19:18;28.02;;;21.70;;
61903;SDS011;47857;52.270;6.804;2023-05-07T03:21:43;28.27;;;21.52;;
61903;SDS011;47857;52.270;6.804;2023-05-07T03:24:09;28.88;;;22.30;;
61903;SDS011;47857;52.270;6.804;2023-05-07T03:26:34;29.63;;;22.23;;
61903;SDS011;47857;52.270;6.804;2023-05-07T03:29:00;31.88;;;23.67;;
61903;SDS011;47857;52.270;6.804;2023-05-07T03:31:25;29.25;;;23.00;;
61903;SDS011;47857;52.270;6.804;2023-05-07T03:33:52;28.92;;;22.90;;
61903;SDS011;47857;52.270;6.804;2023-05-07T03:36:18;31.63;;;22.27;;
61903;SDS011;47857;52.270;6.804;2023-05-07T03:38:44;31.33;;;22.92;;
61903;SDS011;47857;52.270;6.804;2023-05-07T03:41:10;28.40;;;22.58;;
61903;SDS011;47857;52.270;6.804;2023-05-07T03:43:36;30.10;;;23.00;;
61903;SDS011;47857;52.270;6.804;2023-05-07T03:46:06;27.65;;;22.00;;
61903;SDS011;47857;52.270;6.804;2023-05-07T03:48:32;30.25;;;23.33;;
61903;SDS011;47857;52.270;6.804;2023-05-07T03:50:58;30.42;;;23.67;;
61903;SDS011;47857;52.270;6.804;2023-05-07T03:53:28;33.35;;;23.52;;
61903;SDS011;47857;52.270;6.804;2023-05-07T03:55:54;28.65;;;22.70;;
61903;SDS011;47857;52.270;6.804;2023-05-07T03:58:20;29.67;;;23.40;;
61903;SDS011;47857;52.270;6.804;2023-05-07T04:00:46;28.63;;;23.27;;
61903;SDS011;47857;52.270;6.804;2023-05-07T04:03:19;30.23;;;23.13;;
61903;SDS011;47857;52.270;6.804;2023-05-07T04:05:44;29.17;;;23.00;;
61903;SDS011;47857;52.270;6.804;2023-05-07T04:08:10;31.50;;;22.90;;
61903;SDS011;47857;52.270;6.804;2023-05-07T04:10:39;31.38;;;23.02;;
61903;SDS011;47857;52.270;6.804;2023-05-07T04:13:08;27.83;;;23.05;;
61903;SDS011;47857;52.270;6.804;2023-05-07T04:15:35;30.00;;;22.95;;
61903;SDS011;47857;52.270;6.804;2023-05-07T04:18:01;31.27;;;22.90;;
61903;SDS011;47857;52.270;6.804;2023-05-07T04:20:27;28.08;;;22.75;;
61903;SDS011;47857;52.270;6.804;2023-05-07T04:22:58;29.77;;;23.60;;
61903;SDS011;47857;52.270;6.804;2023-05-07T04:25:24;31.35;;;24.08;;
61903;SDS011;47857;52.270;6.804;2023-05-07T04:27:54;31.77;;;23.25;;
61903;SDS011;47857;52.270;6.804;2023-05-07T04:30:25;32.40;;;23.85;;
61903;SDS011;47857;52.270;6.804;2023-05-07T04:32:51;32.17;;;24.38;;
61903;SDS011;47857;52.270;6.804;2023-05-07T04:35:18;34.05;;;24.83;;
61903;SDS011;47857;52.270;6.804;2023-05-07T04:37:44;30.17;;;24.08;;
61903;SDS011;47857;52.270;6.804;2023-05-07T04:40:10;34.85;;;24.30;;
61903;SDS011;47857;52.270;6.804;2023-05-07T04:42:35;33.63;;;24.17;;
61903;SDS011;47857;52.270;6.804;2023-05-07T04:45:02;32.72;;;24.48;;
61903;SDS011;47857;52.270;6.804;2023-05-07T04:47:32;34.22;;;25.20;;
61903;SDS011;47857;52.270;6.804;2023-05-07T04:50:00;37.33;;;25.48;;
61903;SDS011;47857;52.270;6.804;2023-05-07T04:52:26;32.72;;;24.90;;
61903;SDS011;47857;52.270;6.804;2023-05-07T04:54:52;32.13;;;24.63;;
61903;SDS011;47857;52.270;6.804;2023-05-07T04:57:17;32.58;;;24.77;;
61903;SDS011;47857;52.270;6.804;2023-05-07T04:59:43;31.88;;;25.48;;
61903;SDS011;47857;52.270;6.804;2023-05-07T05:02:10;32.88;;;24.85;;
61903;SDS011;47857;52.270;6.804;2023-05-07T05:04:36;36.60;;;24.83;;
61903;SDS011;47857;52.270;6.804;2023-05-07T05:07:02;31.85;;;25.00;;
61903;SDS011;47857;52.270;6.804;2023-05-07T05:09:29;37.00;;;25.30;;
61903;SDS011;47857;52.270;6.804;2023-05-07T05:11:55;31.83;;;24.63;;
61903;SDS011;47857;52.270;6.804;2023-05-07T05:14:21;34.63;;;25.95;;
61903;SDS011;47857;52.270;6.804;2023-05-07T05:16:47;34.58;;;25.23;;
61903;SDS011;47857;52.270;6.804;2023-05-07T05:19:13;34.80;;;25.75;;
61903;SDS011;47857;52.270;6.804;2023-05-07T05:21:40;35.38;;;25.70;;
61903;SDS011;47857;52.270;6.804;2023-05-07T05:24:08;35.20;;;25.98;;
61903;SDS011;47857;52.270;6.804;2023-05-07T05:26:34;34.55;;;25.58;;
61903;SDS011;47857;52.270;6.804;2023-05-07T05:29:00;34.33;;;25.92;;
61903;SDS011;47857;52.270;6.804;2023-05-07T05:31:29;37.30;;;25.98;;
61903;SDS011;47857;52.270;6.804;2023-05-07T05:33:54;34.85;;;25.85;;
61903;SDS011;47857;52.270;6.804;2023-05-07T05:36:20;38.13;;;26.05;;
61903;SDS011;47857;52.270;6.804;2023-05-07T05:38:48;33.83;;;25.35;;
61903;SDS011;47857;52.270;6.804;2023-05-07T05:41:13;36.00;;;26.45;;
61903;SDS011;47857;52.270;6.804;2023-05-07T05:43:39;35.05;;;25.65;;
61903;SDS011;47857;52.270;6.804;2023-05-07T05:46:05;38.45;;;27.75;;
61903;SDS011;47857;52.270;6.804;2023-05-07T05:48:31;36.83;;;26.45;;
61903;SDS011;47857;52.270;6.804;2023-05-07T05:50:59;37.08;;;26.67;;
61903;SDS011;47857;52.270;6.804;2023-05-07T05:53:25;36.42;;;26.08;;
61903;SDS011;47857;52.270;6.804;2023-05-07T05:55:51;37.38;;;26.67;;
61903;SDS011;47857;52.270;6.804;2023-05-07T05:58:17;35.00;;;26.15;;
61903;SDS011;47857;52.270;6.804;2023-05-07T06:00:49;38.42;;;26.23;;
61903;SDS011;47857;52.270;6.804;2023-05-07T06:03:17;34.85;;;26.15;;
61903;SDS011;47857;52.270;6.804;2023-05-07T06:05:44;34.40;;;26.27;;
61903;SDS011;47857;52.270;6.804;2023-05-07T06:08:10;35.60;;;26.67;;
61903;SDS011;47857;52.270;6.804;2023-05-07T06:10:38;32.78;;;25.60;;
61903;SDS011;47857;52.270;6.804;2023-05-07T06:13:06;35.20;;;26.30;;
61903;SDS011;47857;52.270;6.804;2023-05-07T06:15:33;36.65;;;26.33;;
61903;SDS011;47857;52.270;6.804;2023-05-07T06:18:04;33.88;;;26.17;;
61903;SDS011;47857;52.270;6.804;2023-05-07T06:20:30;35.28;;;27.25;;
61903;SDS011;47857;52.270;6.804;2023-05-07T06:22:57;37.65;;;28.08;;
61903;SDS011;47857;52.270;6.804;2023-05-07T06:25:23;34.83;;;25.83;;
61903;SDS011;47857;52.270;6.804;2023-05-07T06:27:49;38.25;;;26.55;;
61903;SDS011;47857;52.270;6.804;2023-05-07T06:30:14;34.28;;;25.98;;
61903;SDS011;47857;52.270;6.804;2023-05-07T06:32:40;35.60;;;26.98;;
61903;SDS011;47857;52.270;6.804;2023-05-07T06:35:06;33.83;;;27.02;;
61903;SDS011;47857;52.270;6.804;2023-05-07T06:37:35;37.22;;;27.08;;
61903;SDS011;47857;52.270;6.804;2023-05-07T06:40:05;39.47;;;27.30;;
61903;SDS011;47857;52.270;6.804;2023-05-07T06:42:33;34.58;;;26.45;;
61903;SDS011;47857;52.270;6.804;2023-05-07T06:45:19;33.75;;;27.25;;
61903;SDS011;47857;52.270;6.804;2023-05-07T06:47:45;35.10;;;27.35;;
61903;SDS011;47857;52.270;6.804;2023-05-07T06:50:11;34.17;;;26.65;;
61903;SDS011;47857;52.270;6.804;2023-05-07T06:52:37;36.05;;;26.98;;
61903;SDS011;47857;52.270;6.804;2023-05-07T06:55:03;36.72;;;26.73;;
61903;SDS011;47857;52.270;6.804;2023-05-07T06:57:30;35.55;;;27.08;;
61903;SDS011;47857;52.270;6.804;2023-05-07T06:59:55;35.55;;;27.15;;
61903;SDS011;47857;52.270;6.804;2023-05-07T07:02:21;34.58;;;26.75;;
61903;SDS011;47857;52.270;6.804;2023-05-07T07:04:48;33.60;;;25.73;;
61903;SDS011;47857;52.270;6.804;2023-05-07T07:07:13;33.83;;;26.13;;
61903;SDS011;47857;52.270;6.804;2023-05-07T07:09:42;32.40;;;25.35;;
61903;SDS011;47857;52.270;6.804;2023-05-07T07:12:08;33.90;;;25.30;;
61903;SDS011;47857;52.270;6.804;2023-05-07T07:14:36;35.35;;;26.30;;
61903;SDS011;47857;52.270;6.804;2023-05-07T07:17:02;32.53;;;24.55;;
61903;SDS011;47857;52.270;6.804;2023-05-07T07:19:30;31.17;;;25.20;;
61903;SDS011;47857;52.270;6.804;2023-05-07T07:21:57;32.90;;;25.48;;
61903;SDS011;47857;52.270;6.804;2023-05-07T07:24:22;34.75;;;25.52;;
61903;SDS011;47857;52.270;6.804;2023-05-07T07:26:53;31.83;;;24.95;;
61903;SDS011;47857;52.270;6.804;2023-05-07T07:29:20;32.63;;;25.55;;
61903;SDS011;47857;52.270;6.804;2023-05-07T07:31:48;34.95;;;24.38;;
61903;SDS011;47857;52.270;6.804;2023-05-07T07:34:14;29.50;;;24.85;;
61903;SDS011;47857;52.270;6.804;2023-05-07T07:36:41;33.35;;;24.33;;
61903;SDS011;47857;52.270;6.804;2023-05-07T07:39:07;29.80;;;24.90;;
61903;SDS011;47857;52.270;6.804;2023-05-07T07:41:33;32.33;;;24.65;;
61903;SDS011;47857;52.270;6.804;2023-05-07T07:43:59;35.70;;;25.20;;
61903;SDS011;47857;52.270;6.804;2023-05-07T07:46:24;35.45;;;24.38;;
61903;SDS011;47857;52.270;6.804;2023-05-07T07:48:52;34.17;;;24.77;;
61903;SDS011;47857;52.270;6.804;2023-05-07T07:51:18;30.15;;;24.30;;
61903;SDS011;47857;52.270;6.804;2023-05-07T07:53:44;31.70;;;24.92;;
61903;SDS011;47857;52.270;6.804;2023-05-07T07:56:09;30.33;;;24.35;;
61903;SDS011;47857;52.270;6.804;2023-05-07T07:58:35;30.55;;;24.98;;
61903;SDS011;47857;52.270;6.804;2023-05-07T08:01:02;31.60;;;24.48;;
61903;SDS011;47857;52.270;6.804;2023-05-07T08:03:28;32.83;;;24.70;;
61903;SDS011;47857;52.270;6.804;2023-05-07T08:05:57;30.65;;;24.73;;
61903;SDS011;47857;52.270;6.804;2023-05-07T08:08:24;31.73;;;24.88;;
61903;SDS011;47857;52.270;6.804;2023-05-07T08:10:51;30.85;;;24.13;;
61903;SDS011;47857;52.270;6.804;2023-05-07T08:13:24;28.05;;;23.88;;
61903;SDS011;47857;52.270;6.804;2023-05-07T08:15:50;28.90;;;23.45;;
61903;SDS011;47857;52.270;6.804;2023-05-07T08:18:15;31.98;;;24.67;;
61903;SDS011;47857;52.270;6.804;2023-05-07T08:20:43;28.58;;;23.23;;
61903;SDS011;47857;52.270;6.804;2023-05-07T08:23:13;27.25;;;23.05;;
61903;SDS011;47857;52.270;6.804;2023-05-07T08:25:40;32.33;;;22.95;;
61903;SDS011;47857;52.270;6.804;2023-05-07T08:28:07;28.33;;;22.33;;
61903;SDS011;47857;52.270;6.804;2023-05-07T08:30:33;30.10;;;22.23;;
61903;SDS011;47857;52.270;6.804;2023-05-07T08:33:00;28.92;;;22.60;;
61903;SDS011;47857;52.270;6.804;2023-05-07T08:35:25;27.70;;;22.75;;
61903;SDS011;47857;52.270;6.804;2023-05-07T08:37:52;27.10;;;22.60;;
61903;SDS011;47857;52.270;6.804;2023-05-07T08:40:18;26.95;;;21.63;;
61903;SDS011;47857;52.270;6.804;2023-05-07T08:42:44;29.33;;;21.38;;
61903;SDS011;47857;52.270;6.804;2023-05-07T08:45:10;26.67;;;21.10;;
61903;SDS011;47857;52.270;6.804;2023-05-07T08:47:42;27.80;;;22.20;;
61903;SDS011;47857;52.270;6.804;2023-05-07T08:50:14;29.92;;;21.33;;
61903;SDS011;47857;52.270;6.804;2023-05-07T08:52:40;26.15;;;20.98;;
61903;SDS011;47857;52.270;6.804;2023-05-07T08:55:07;26.10;;;20.83;;
61903;SDS011;47857;52.270;6.804;2023-05-07T08:57:33;24.40;;;20.52;;
61903;SDS011;47857;52.270;6.804;2023-05-07T09:00:00;25.65;;;20.23;;
61903;SDS011;47857;52.270;6.804;2023-05-07T09:02:26;24.30;;;20.35;;
61903;SDS011;47857;52.270;6.804;2023-05-07T09:04:53;24.30;;;19.92;;
61903;SDS011;47857;52.270;6.804;2023-05-07T09:07:19;24.42;;;19.88;;
61903;SDS011;47857;52.270;6.804;2023-05-07T09:09:46;25.48;;;19.83;;
61903;SDS011;47857;52.270;6.804;2023-05-07T09:12:12;23.63;;;19.63;;
61903;SDS011;47857;52.270;6.804;2023-05-07T09:14:38;22.75;;;20.30;;
61903;SDS011;47857;52.270;6.804;2023-05-07T09:17:04;24.23;;;20.00;;
61903;SDS011;47857;52.270;6.804;2023-05-07T09:19:30;24.17;;;19.85;;
61903;SDS011;47857;52.270;6.804;2023-05-07T09:22:03;23.50;;;18.60;;
61903;SDS011;47857;52.270;6.804;2023-05-07T09:24:47;23.77;;;17.90;;
61903;SDS011;47857;52.270;6.804;2023-05-07T09:27:13;22.23;;;17.40;;
61903;SDS011;47857;52.270;6.804;2023-05-07T09:29:39;22.92;;;17.38;;
61903;SDS011;47857;52.270;6.804;2023-05-07T09:32:05;23.48;;;18.30;;
61903;SDS011;47857;52.270;6.804;2023-05-07T09:34:31;20.35;;;17.38;;
61903;SDS011;47857;52.270;6.804;2023-05-07T09:37:00;20.83;;;16.88;;
61903;SDS011;47857;52.270;6.804;2023-05-07T09:39:37;23.55;;;18.67;;
61903;SDS011;47857;52.270;6.804;2023-05-07T09:42:04;20.40;;;17.83;;
61903;SDS011;47857;52.270;6.804;2023-05-07T09:44:34;21.02;;;17.58;;
61903;SDS011;47857;52.270;6.804;2023-05-07T09:47:01;22.23;;;17.67;;
61903;SDS011;47857;52.270;6.804;2023-05-07T09:49:36;23.77;;;17.20;;
61903;SDS011;47857;52.270;6.804;2023-05-07T09:52:08;21.08;;;16.35;;
61903;SDS011;47857;52.270;6.804;2023-05-07T09:54:42;21.63;;;16.50;;
61903;SDS011;47857;52.270;6.804;2023-05-07T09:57:10;21.73;;;16.55;;
61903;SDS011;47857;52.270;6.804;2023-05-07T09:59:37;19.73;;;16.27;;
61903;SDS011;47857;52.270;6.804;2023-05-07T10:02:07;20.70;;;16.55;;
61903;SDS011;47857;52.270;6.804;2023-05-07T10:04:41;21.17;;;17.58;;
61903;SDS011;47857;52.270;6.804;2023-05-07T10:07:07;20.48;;;17.05;;
61903;SDS011;47857;52.270;6.804;2023-05-07T10:09:35;20.42;;;17.60;;
61903;SDS011;47857;52.270;6.804;2023-05-07T10:12:04;21.80;;;18.25;;
61903;SDS011;47857;52.270;6.804;2023-05-07T10:14:32;22.67;;;17.92;;
61903;SDS011;47857;52.270;6.804;2023-05-07T10:16:58;22.95;;;17.17;;
61903;SDS011;47857;52.270;6.804;2023-05-07T10:19:26;19.98;;;17.63;;
61903;SDS011;47857;52.270;6.804;2023-05-07T10:22:00;18.00;;;15.60;;
61903;SDS011;47857;52.270;6.804;2023-05-07T10:24:31;20.50;;;16.65;;
61903;SDS011;47857;52.270;6.804;2023-05-07T10:27:01;19.60;;;15.88;;
61903;SDS011;47857;52.270;6.804;2023-05-07T10:35:14;20.25;;;16.52;;
61903;SDS011;47857;52.270;6.804;2023-05-07T10:37:43;19.10;;;16.75;;
61903;SDS011;47857;52.270;6.804;2023-05-07T10:40:09;20.13;;;16.70;;
61903;SDS011;47857;52.270;6.804;2023-05-07T10:42:36;19.42;;;15.75;;
61903;SDS011;47857;52.270;6.804;2023-05-07T10:45:11;18.02;;;16.00;;
61903;SDS011;47857;52.270;6.804;2023-05-07T10:50:47;18.50;;;16.13;;
61903;SDS011;47857;52.270;6.804;2023-05-07T10:55:42;17.75;;;15.85;;
61903;SDS011;47857;52.270;6.804;2023-05-07T10:58:42;20.42;;;16.15;;
61903;SDS011;47857;52.270;6.804;2023-05-07T11:04:30;18.60;;;16.60;;
61903;SDS011;47857;52.270;6.804;2023-05-07T11:07:26;20.40;;;16.85;;
61903;SDS011;47857;52.270;6.804;2023-05-07T11:09:59;19.33;;;17.23;;
61903;SDS011;47857;52.270;6.804;2023-05-07T11:12:47;24.40;;;17.17;;
61903;SDS011;47857;52.270;6.804;2023-05-07T11:15:40;19.90;;;16.08;;
61903;SDS011;47857;52.270;6.804;2023-05-07T11:18:16;18.02;;;15.80;;
61903;SDS011;47857;52.270;6.804;2023-05-07T11:20:47;20.85;;;16.95;;
61903;SDS011;47857;52.270;6.804;2023-05-07T11:26:30;22.48;;;17.45;;
61903;SDS011;47857;52.270;6.804;2023-05-07T11:28:57;22.90;;;17.48;;
61903;SDS011;47857;52.270;6.804;2023-05-07T11:31:26;20.75;;;17.08;;
61903;SDS011;47857;52.270;6.804;2023-05-07T11:33:55;22.15;;;18.00;;
61903;SDS011;47857;52.270;6.804;2023-05-07T11:36:22;20.48;;;17.50;;
61903;SDS011;47857;52.270;6.804;2023-05-07T11:38:50;18.65;;;16.67;;
61903;SDS011;47857;52.270;6.804;2023-05-07T11:41:15;20.38;;;16.95;;
61903;SDS011;47857;52.270;6.804;2023-05-07T11:43:55;18.17;;;15.90;;
61903;SDS011;47857;52.270;6.804;2023-05-07T11:46:21;18.63;;;16.58;;
61903;SDS011;47857;52.270;6.804;2023-05-07T11:48:47;20.25;;;16.42;;
61903;SDS011;47857;52.270;6.804;2023-05-07T11:51:12;21.83;;;17.17;;
61903;SDS011;47857;52.270;6.804;2023-05-07T11:53:39;20.20;;;17.17;;
61903;SDS011;47857;52.270;6.804;2023-05-07T11:56:09;21.98;;;17.48;;
61903;SDS011;47857;52.270;6.804;2023-05-07T11:58:35;19.40;;;17.27;;
61903;SDS011;47857;52.270;6.804;2023-05-07T12:01:01;20.33;;;17.58;;
61903;SDS011;47857;52.270;6.804;2023-05-07T12:03:27;22.58;;;18.33;;
61903;SDS011;47857;52.270;6.804;2023-05-07T12:05:53;19.00;;;16.98;;
61903;SDS011;47857;52.270;6.804;2023-05-07T12:08:19;18.85;;;16.85;;
61903;SDS011;47857;52.270;6.804;2023-05-07T12:10:46;21.80;;;17.60;;
61903;SDS011;47857;52.270;6.804;2023-05-07T12:13:20;20.17;;;16.00;;
61903;SDS011;47857;52.270;6.804;2023-05-07T12:15:50;21.42;;;19.08;;
61903;SDS011;47857;52.270;6.804;2023-05-07T12:18:19;22.85;;;17.27;;
61903;SDS011;47857;52.270;6.804;2023-05-07T12:20:45;16.90;;;12.48;;
61903;SDS011;47857;52.270;6.804;2023-05-07T12:23:10;15.20;;;11.88;;
61903;SDS011;47857;52.270;6.804;2023-05-07T12:25:37;13.13;;;11.07;;
61903;SDS011;47857;52.270;6.804;2023-05-07T12:28:03;11.63;;;10.07;;
61903;SDS011;47857;52.270;6.804;2023-05-07T12:30:39;13.88;;;11.38;;
61903;SDS011;47857;52.270;6.804;2023-05-07T12:33:05;13.07;;;10.77;;
61903;SDS011;47857;52.270;6.804;2023-05-07T12:35:31;11.60;;;9.38;;
61903;SDS011;47857;52.270;6.804;2023-05-07T12:37:58;12.60;;;9.38;;
61903;SDS011;47857;52.270;6.804;2023-05-07T12:40:46;11.52;;;9.20;;
61903;SDS011;47857;52.270;6.804;2023-05-07T12:45:42;17.27;;;13.18;;
61903;SDS011;47857;52.270;6.804;2023-05-07T12:48:09;14.70;;;12.65;;
61903;SDS011;47857;52.270;6.804;2023-05-07T12:50:35;16.17;;;12.73;;
61903;SDS011;47857;52.270;6.804;2023-05-07T12:53:00;13.60;;;11.68;;
61903;SDS011;47857;52.270;6.804;2023-05-07T12:55:31;14.02;;;11.60;;
61903;SDS011;47857;52.270;6.804;2023-05-07T12:57:57;13.48;;;11.88;;
61903;SDS011;47857;52.270;6.804;2023-05-07T13:00:32;13.57;;;11.40;;
61903;SDS011;47857;52.270;6.804;2023-05-07T13:02:58;17.08;;;12.77;;
61903;SDS011;47857;52.270;6.804;2023-05-07T13:05:24;14.98;;;12.20;;
61903;SDS011;47857;52.270;6.804;2023-05-07T13:07:53;14.15;;;12.65;;
61903;SDS011;47857;52.270;6.804;2023-05-07T13:10:19;15.57;;;13.07;;
61903;SDS011;47857;52.270;6.804;2023-05-07T13:12:45;14.98;;;13.40;;
61903;SDS011;47857;52.270;6.804;2023-05-07T13:15:10;13.32;;;11.93;;
61903;SDS011;47857;52.270;6.804;2023-05-07T13:17:36;16.15;;;11.00;;
61903;SDS011;47857;52.270;6.804;2023-05-07T13:20:01;12.63;;;10.30;;
61903;SDS011;47857;52.270;6.804;2023-05-07T13:22:28;13.90;;;10.98;;
61903;SDS011;47857;52.270;6.804;2023-05-07T13:24:53;16.00;;;10.70;;
61903;SDS011;47857;52.270;6.804;2023-05-07T13:27:20;13.90;;;11.43;;
61903;SDS011;47857;52.270;6.804;2023-05-07T13:29:45;10.98;;;9.50;;
61903;SDS011;47857;52.270;6.804;2023-05-07T13:32:11;12.52;;;11.07;;
61903;SDS011;47857;52.270;6.804;2023-05-07T13:34:36;12.18;;;10.48;;
61903;SDS011;47857;52.270;6.804;2023-05-07T13:37:02;12.75;;;11.20;;
61903;SDS011;47857;52.270;6.804;2023-05-07T13:39:27;15.13;;;11.52;;
61903;SDS011;47857;52.270;6.804;2023-05-07T13:41:53;12.85;;;10.27;;
61903;SDS011;47857;52.270;6.804;2023-05-07T13:44:18;10.88;;;8.35;;
61903;SDS011;47857;52.270;6.804;2023-05-07T13:46:44;9.25;;;7.90;;
61903;SDS011;47857;52.270;6.804;2023-05-07T13:49:10;7.20;;;6.28;;
61903;SDS011;47857;52.270;6.804;2023-05-07T13:51:36;11.65;;;6.60;;
61903;SDS011;47857;52.270;6.804;2023-05-07T13:54:01;8.85;;;6.15;;
61903;SDS011;47857;52.270;6.804;2023-05-07T13:56:28;8.35;;;6.88;;
61903;SDS011;47857;52.270;6.804;2023-05-07T13:58:56;11.27;;;7.22;;
61903;SDS011;47857;52.270;6.804;2023-05-07T14:01:21;8.25;;;6.65;;
61903;SDS011;47857;52.270;6.804;2023-05-07T14:03:46;7.22;;;6.45;;
61903;SDS011;47857;52.270;6.804;2023-05-07T14:06:12;7.05;;;5.32;;
61903;SDS011;47857;52.270;6.804;2023-05-07T14:08:38;7.13;;;5.93;;
61903;SDS011;47857;52.270;6.804;2023-05-07T14:11:04;9.65;;;6.70;;
61903;SDS011;47857;52.270;6.804;2023-05-07T14:13:29;12.13;;;8.45;;
61903;SDS011;47857;52.270;6.804;2023-05-07T14:15:56;12.02;;;9.60;;
61903;SDS011;47857;52.270;6.804;2023-05-07T14:18:22;12.63;;;9.68;;
61903;SDS011;47857;52.270;6.804;2023-05-07T14:20:47;14.38;;;11.15;;
61903;SDS011;47857;52.270;6.804;2023-05-07T14:23:14;12.25;;;10.85;;
61903;SDS011;47857;52.270;6.804;2023-05-07T14:25:40;13.55;;;11.68;;
61903;SDS011;47857;52.270;6.804;2023-05-07T14:28:06;15.65;;;10.07;;
61903;SDS011;47857;52.270;6.804;2023-05-07T14:30:31;10.43;;;8.70;;
61903;SDS011;47857;52.270;6.804;2023-05-07T14:32:57;11.02;;;8.95;;
61903;SDS011;47857;52.270;6.804;2023-05-07T14:35:23;11.50;;;8.88;;
61903;SDS011;47857;52.270;6.804;2023-05-07T14:37:48;11.70;;;9.40;;
61903;SDS011;47857;52.270;6.804;2023-05-07T14:40:13;10.43;;;8.98;;
61903;SDS011;47857;52.270;6.804;2023-05-07T14:42:40;9.90;;;8.88;;
61903;SDS011;47857;52.270;6.804;2023-05-07T14:45:06;12.45;;;10.75;;